Time;durP1;ratioP1;P1;durP2;ratioP2;P2;SDS_P1;SDS_P2;PMS_P1;PMS_P2;Temp;Humidity;BMP_temperature;BMP_pressure;BME280_temperature;BME280_humidity;BME280_pressure;Samples;Min_cycle;Max_cycle;Signal;HPM_P1;HPM_P2
2023/07/13 00:01:14;;;;;;;44.90;15.07;;;;;;;30.49;55.48;100912.16;4936849;28;20396;-80
2023/07/13 00:03:47;;;;;;;29.35;14.13;;;;;;;30.41;56.03;100918.94;4942005;28;20501;-82
2023/07/13 00:06:17;;;;;;;29.73;15.32;;;;;;;30.40;57.27;100934.56;4920484;28;20494;-82
2023/07/13 00:08:44;;;;;;;41.03;16.05;;;;;;;30.44;58.23;100945.84;4944235;28;20545;-82
2023/07/13 00:11:12;;;;;;;36.67;16.63;;;;;;;30.38;58.19;100935.91;4941664;28;20474;-81
2023/07/13 00:13:41;;;;;;;36.95;15.43;;;;;;;30.28;59.03;100936.66;4943228;28;20307;-81
2023/07/13 00:16:11;;;;;;;44.25;17.10;;;;;;;30.20;59.17;100928.88;4933900;28;20438;-82
2023/07/13 00:18:38;;;;;;;38.92;16.40;;;;;;;29.85;59.45;100900.06;4936994;28;20503;-81
2023/07/13 00:21:06;;;;;;;41.00;16.15;;;;;;;30.10;59.75;100939.72;4946972;28;20354;-81
2023/07/13 00:23:37;;;;;;;31.83;14.23;;;;;;;30.16;59.30;100933.22;4941066;28;20051;-83
2023/07/13 00:26:09;;;;;;;47.90;18.98;;;;;;;30.14;59.70;100929.91;4933594;28;20042;-81
2023/07/13 00:28:37;;;;;;;36.90;16.95;;;;;;;30.21;59.59;100922.31;4934093;28;20142;-84
2023/07/13 00:31:09;;;;;;;38.10;15.20;;;;;;;30.07;60.18;100913.69;4934253;28;20051;-84
2023/07/13 00:33:37;;;;;;;38.70;16.92;;;;;;;29.91;60.59;100904.50;4950812;28;20058;-82
2023/07/13 00:36:04;;;;;;;42.97;15.63;;;;;;;29.90;60.50;100916.53;4914472;29;20047;-81
2023/07/13 00:38:31;;;;;;;38.70;15.93;;;;;;;29.93;61.20;100917.91;4924952;28;20055;-81
2023/07/13 00:41:03;;;;;;;35.80;16.30;;;;;;;29.88;61.01;100920.59;4925870;29;20055;-82
2023/07/13 00:43:30;;;;;;;33.60;15.27;;;;;;;29.85;60.82;100921.13;4925968;28;20058;-81
2023/07/13 00:46:16;;;;;;;33.97;16.92;;;;;;;29.74;61.24;100903.78;4897361;29;20467;-81
2023/07/13 00:48:48;;;;;;;42.72;16.92;;;;;;;29.84;61.55;100931.25;4903574;29;20613;-82
2023/07/13 00:51:28;;;;;;;37.00;16.35;;;;;;;29.82;61.59;100926.03;4905513;29;20259;-81
2023/07/13 00:54:00;;;;;;;35.33;15.77;;;;;;;29.59;61.11;100877.88;4911294;29;20071;-80
2023/07/13 00:56:28;;;;;;;34.72;17.98;;;;;;;29.62;61.32;100890.22;4923970;28;20051;-82
2023/07/13 00:59:01;;;;;;;46.95;17.70;;;;;;;29.82;61.47;100939.72;4880269;28;20529;-82
2023/07/13 01:01:33;;;;;;;36.88;16.90;;;;;;;29.77;61.70;100922.41;4910440;28;20073;-80
2023/07/13 01:04:07;;;;;;;31.95;16.33;;;;;;;29.66;61.33;100907.78;4956529;28;20057;-81
2023/07/13 01:06:37;;;;;;;38.78;17.55;;;;;;;29.50;62.05;100908.69;4964425;28;20042;-81
2023/07/13 01:09:08;;;;;;;38.92;16.23;;;;;;;29.54;61.96;100938.00;4956748;28;20485;-82
2023/07/13 01:11:35;;;;;;;32.05;17.02;;;;;;;29.30;62.57;100907.34;4958867;28;20484;-80
2023/07/13 01:14:03;;;;;;;35.63;18.50;;;;;;;29.32;62.80;100938.00;4962629;28;20054;-80
2023/07/13 01:16:39;;;;;;;35.47;17.30;;;;;;;29.06;63.19;100909.47;4959438;28;20053;-82
2023/07/13 01:19:38;;;;;;;41.60;19.42;;;;;;;29.14;63.73;100933.63;4954363;28;20473;-80
2023/07/13 01:22:08;;;;;;;39.60;21.17;;;;;;;29.19;64.56;100950.09;4959742;28;20049;-80
2023/07/13 01:24:36;;;;;;;36.83;18.92;;;;;;;29.07;64.77;100952.13;4962332;28;20426;-81
2023/07/13 01:27:05;;;;;;;47.03;21.23;;;;;;;29.03;65.10;100944.63;4959639;28;20489;-80
2023/07/13 01:29:41;;;;;;;41.78;22.25;;;;;;;28.86;64.84;100931.00;4978323;28;20218;-80
2023/07/13 01:32:22;;;;;;;39.92;23.42;;;;;;;28.89;65.82;100952.38;4965011;28;20136;-81
2023/07/13 01:34:54;;;;;;;49.13;23.20;;;;;;;28.77;65.69;100955.19;4947402;28;20197;-80
2023/07/13 01:37:22;;;;;;;36.53;20.20;;;;;;;28.68;65.11;100941.09;4931945;28;20468;-81
2023/07/13 01:39:49;;;;;;;42.08;18.73;;;;;;;28.78;63.00;100951.38;4946799;28;20511;-81
2023/07/13 01:42:16;;;;;;;31.10;16.75;;;;;;;28.61;63.81;100956.84;4952231;28;20396;-82
2023/07/13 01:44:43;;;;;;;34.03;16.20;;;;;;;28.21;63.08;100894.97;4940296;28;20054;-80
2023/07/13 01:47:12;;;;;;;25.50;14.65;;;;;;;28.09;63.10;100864.22;4946567;28;20320;-81
2023/07/13 01:49:47;;;;;;;25.50;13.60;;;;;;;28.37;62.83;100917.91;4932077;28;20137;-81
2023/07/13 01:52:16;;;;;;;35.35;14.85;;;;;;;28.53;62.23;100941.69;4949962;28;20251;-81
2023/07/13 01:54:43;;;;;;;28.23;14.15;;;;;;;28.47;62.53;100942.69;4959680;28;20380;-79
2023/07/13 01:57:10;;;;;;;37.90;14.68;;;;;;;28.44;62.52;100936.84;4952504;28;20528;-80
2023/07/13 01:59:41;;;;;;;27.17;13.25;;;;;;;28.38;63.37;100918.75;4940553;28;20050;-83
2023/07/13 02:02:13;;;;;;;22.52;14.18;;;;;;;28.62;62.46;100928.47;4940938;28;20296;-81
2023/07/13 02:04:44;;;;;;;33.78;14.88;;;;;;;28.62;61.10;100903.88;4958391;28;20069;-82
2023/07/13 02:07:11;;;;;;;24.58;13.40;;;;;;;28.40;61.14;100889.28;4964307;28;20209;-81
2023/07/13 02:09:38;;;;;;;23.00;12.77;;;;;;;28.36;61.48;100888.13;4972762;28;20409;-81
2023/07/13 02:12:07;;;;;;;24.88;13.23;;;;;;;28.53;60.68;100910.84;4972570;28;20046;-82
2023/07/13 02:14:37;;;;;;;31.27;12.80;;;;;;;28.51;60.55;100888.41;4957560;28;20081;-80
2023/07/13 02:17:05;;;;;;;22.95;12.25;;;;;;;28.55;58.73;100881.38;4969969;28;20049;-79
2023/07/13 02:19:32;;;;;;;22.65;10.68;;;;;;;28.28;58.61;100860.16;4956942;28;20521;-79
2023/07/13 02:21:59;;;;;;;22.63;9.27;;;;;;;28.43;58.00;100875.16;4947966;28;20137;-80
2023/07/13 02:24:26;;;;;;;13.55;9.18;;;;;;;28.33;56.77;100860.25;4970975;28;20049;-80
2023/07/13 02:26:53;;;;;;;19.55;9.93;;;;;;;28.31;56.76;100858.84;4934918;28;20522;-80
2023/07/13 02:29:22;;;;;;;19.13;9.63;;;;;;;28.50;56.83;100911.34;4948365;28;20050;-81
2023/07/13 02:31:51;;;;;;;23.58;10.32;;;;;;;28.46;58.00;100900.06;4975203;28;20049;-82
2023/07/13 02:34:23;;;;;;;21.10;10.38;;;;;;;28.66;57.61;100915.94;4948075;28;20061;-81
2023/07/13 02:36:51;;;;;;;25.02;9.85;;;;;;;28.68;57.52;100921.16;4951714;28;20140;-80
2023/07/13 02:39:18;;;;;;;18.00;9.88;;;;;;;28.67;56.99;100906.69;4929857;28;20449;-81
2023/07/13 02:41:45;;;;;;;19.65;10.02;;;;;;;28.66;56.98;100904.19;4962090;28;20456;-82
2023/07/13 02:44:13;;;;;;;22.67;11.20;;;;;;;28.56;56.81;100883.00;4944410;28;20050;-80
2023/07/13 02:46:40;;;;;;;18.70;10.20;;;;;;;28.83;56.96;100920.56;4966022;28;20129;-80
2023/07/13 02:49:09;;;;;;;24.45;11.00;;;;;;;28.78;57.14;100918.59;4947453;28;20450;-81
2023/07/13 02:51:39;;;;;;;17.48;9.10;;;;;;;28.55;57.72;100892.31;4937196;28;20382;-81
2023/07/13 02:54:08;;;;;;;30.17;10.05;;;;;;;28.57;57.14;100892.88;4952457;28;20109;-81
2023/07/13 02:56:35;;;;;;;29.52;10.75;;;;;;;28.68;56.45;100894.69;4911060;28;20200;-83
2023/07/13 02:59:02;;;;;;;24.25;9.57;;;;;;;28.80;56.74;100910.97;4959674;28;20431;-81
2023/07/13 03:01:34;;;;;;;16.73;9.52;;;;;;;28.87;56.70;100917.09;4941496;28;20049;-81
2023/07/13 03:04:01;;;;;;;23.63;9.68;;;;;;;28.73;57.08;100900.22;4965130;28;20462;-81
2023/07/13 03:06:30;;;;;;;20.65;10.15;;;;;;;28.74;57.05;100901.88;4943153;28;20556;-80
2023/07/13 03:08:57;;;;;;;23.27;10.25;;;;;;;28.63;56.26;100880.13;4957845;28;20081;-80
2023/07/13 03:11:24;;;;;;;16.17;9.75;;;;;;;28.74;56.00;100885.50;4959809;28;20068;-81
2023/07/13 03:13:53;;;;;;;22.13;10.23;;;;;;;28.75;55.76;100881.66;4959439;28;20576;-81
2023/07/13 03:16:20;;;;;;;20.10;8.73;;;;;;;28.88;55.46;100893.31;4974412;28;20272;-81
2023/07/13 03:18:47;;;;;;;18.77;9.02;;;;;;;29.08;57.80;100911.94;4980663;28;20141;-81
2023/07/13 03:21:14;;;;;;;21.23;10.48;;;;;;;29.19;56.87;100895.44;4980107;28;20482;-82
2023/07/13 03:23:41;;;;;;;16.98;10.23;;;;;;;29.26;55.92;100887.03;4981227;28;20318;-80
2023/07/13 03:26:12;;;;;;;13.25;8.30;;;;;;;29.32;57.50;100857.84;4960873;28;20545;-80
2023/07/13 03:28:40;;;;;;;23.10;8.70;;;;;;;29.38;55.52;100879.53;4964909;28;20554;-80
2023/07/13 03:31:11;;;;;;;24.13;9.00;;;;;;;28.60;55.20;100769.47;4956629;28;20215;-78
2023/07/13 03:33:38;;;;;;;19.80;8.77;;;;;;;29.23;55.23;100881.28;4973731;28;20125;-82
2023/07/13 03:36:06;;;;;;;15.88;8.95;;;;;;;29.39;56.36;100872.16;4915381;28;20541;-82
2023/07/13 03:38:37;;;;;;;11.95;8.13;;;;;;;29.44;57.72;100880.41;4936696;28;20096;-81
2023/07/13 03:41:03;;;;;;;18.02;9.60;;;;;;;29.42;55.30;100879.03;4953879;28;20547;-82
2023/07/13 03:43:30;;;;;;;14.93;9.07;;;;;;;29.29;54.29;100877.50;4956450;28;20050;-81
2023/07/13 03:45:57;;;;;;;20.52;9.40;;;;;;;29.37;55.24;100899.78;4961020;28;20232;-81
2023/07/13 03:48:24;;;;;;;26.20;8.68;;;;;;;29.14;54.88;100868.03;4961581;28;20100;-82
2023/07/13 03:50:50;;;;;;;20.45;9.27;;;;;;;29.19;56.57;100868.09;4954452;28;20414;-83
2023/07/13 03:53:18;;;;;;;15.18;8.77;;;;;;;29.33;55.58;100881.41;4960597;28;20273;-82
2023/07/13 03:55:45;;;;;;;21.20;9.13;;;;;;;29.37;55.39;100866.97;4963248;28;20046;-80
2023/07/13 03:58:36;;;;;;;21.30;10.02;;;;;;;29.16;56.26;100815.84;4956625;28;20049;-81
2023/07/13 04:01:09;;;;;;;19.38;9.70;;;;;;;29.28;55.07;100890.34;4963904;28;20120;-82
2023/07/13 04:03:42;;;;;;;20.25;9.00;;;;;;;29.36;55.83;100908.22;4943786;28;20187;-81
2023/07/13 04:06:23;;;;;;;19.88;9.98;;;;;;;29.37;54.91;100920.81;4979014;28;20338;-81
2023/07/13 04:08:56;;;;;;;18.83;10.52;;;;;;;29.08;55.37;100869.06;4944568;28;20536;-80
2023/07/13 04:11:28;;;;;;;16.20;9.82;;;;;;;29.10;57.21;100834.06;4951442;28;20049;-80
2023/07/13 04:13:55;;;;;;;18.52;10.00;;;;;;;29.35;55.77;100876.50;4941901;28;20341;-82
2023/07/13 04:16:27;;;;;;;19.30;10.50;;;;;;;29.23;55.77;100884.00;4950181;28;20042;-83
2023/07/13 04:18:59;;;;;;;21.73;11.05;;;;;;;29.19;56.26;100879.03;4972008;28;20413;-80
2023/07/13 04:21:29;;;;;;;22.23;10.70;;;;;;;29.18;56.46;100880.13;4961460;28;20050;-81
2023/07/13 04:23:56;;;;;;;20.67;10.20;;;;;;;28.96;56.77;100841.00;4951486;28;20100;-81
2023/07/13 04:26:23;;;;;;;24.67;9.88;;;;;;;29.13;57.55;100860.09;4967923;28;20255;-82
2023/07/13 04:28:51;;;;;;;18.45;10.57;;;;;;;28.94;56.49;100824.84;4966822;28;20061;-81
2023/07/13 04:31:18;;;;;;;16.77;10.10;;;;;;;29.27;56.01;100902.34;4961861;28;20464;-81
2023/07/13 04:33:44;;;;;;;19.25;11.48;;;;;;;29.09;55.74;100887.09;4967427;28;20623;-82
2023/07/13 04:36:15;;;;;;;25.85;11.25;;;;;;;29.11;56.68;100906.81;4971736;28;20129;-81
2023/07/13 04:38:44;;;;;;;25.83;11.40;;;;;;;29.09;56.21;100919.91;4974097;28;20053;-82
2023/07/13 04:41:13;;;;;;;24.75;10.70;;;;;;;29.03;56.58;100930.97;4958231;28;20057;-82
2023/07/13 04:43:40;;;;;;;24.45;11.80;;;;;;;29.14;56.82;100921.88;4975741;28;20046;-82
2023/07/13 04:46:12;;;;;;;19.50;11.48;;;;;;;29.16;56.07;100917.81;4973356;28;20054;-81
2023/07/13 04:48:46;;;;;;;25.83;11.27;;;;;;;29.02;56.15;100911.03;4970341;28;20375;-82
2023/07/13 04:51:13;;;;;;;19.98;10.20;;;;;;;29.00;56.86;100904.97;4950307;28;20054;-81
2023/07/13 04:53:39;;;;;;;18.42;10.07;;;;;;;29.10;57.89;100898.84;4972861;28;20521;-81
2023/07/13 04:56:06;;;;;;;19.55;9.65;;;;;;;29.19;57.99;100889.97;4985408;28;20374;-83
2023/07/13 04:58:34;;;;;;;19.25;11.27;;;;;;;29.36;56.65;100919.16;4980952;28;20053;-82
2023/07/13 05:01:02;;;;;;;24.88;17.88;;;;;;;29.20;56.33;100896.25;4960408;28;20051;-82
2023/07/13 05:03:29;;;;;;;23.08;9.90;;;;;;;29.32;56.78;100929.78;4953525;28;20582;-81
2023/07/13 05:06:00;;;;;;;22.08;10.43;;;;;;;28.92;56.35;100853.50;4926577;28;20053;-83
2023/07/13 05:08:30;;;;;;;18.45;10.07;;;;;;;29.42;56.06;100936.44;4924364;28;20361;-82
2023/07/13 05:10:59;;;;;;;36.70;12.18;;;;;;;29.34;55.58;100943.19;4954541;28;20410;-81
2023/07/13 05:13:25;;;;;;;21.17;10.52;;;;;;;29.30;56.44;100937.41;4940448;28;20082;-81
2023/07/13 05:16:03;;;;;;;26.02;11.77;;;;;;;29.25;56.67;100931.03;4939106;28;20418;-82
2023/07/13 05:18:36;;;;;;;19.27;10.05;;;;;;;29.21;57.75;100905.31;4935640;28;20051;-82
2023/07/13 05:21:10;;;;;;;23.83;11.00;;;;;;;29.31;57.37;100916.38;4929871;28;20054;-82
2023/07/13 05:23:37;;;;;;;22.17;11.35;;;;;;;29.09;56.18;100887.09;4934946;28;20339;-83
2023/07/13 05:26:09;;;;;;;17.25;10.02;;;;;;;29.44;57.87;100937.84;4941645;28;20434;-82
2023/07/13 05:28:38;;;;;;;21.13;10.43;;;;;;;29.68;56.17;100910.28;4928142;28;20519;-81
2023/07/13 05:31:09;;;;;;;19.55;10.23;;;;;;;29.61;56.53;100848.38;4957058;28;20547;-81
2023/07/13 05:33:36;;;;;;;22.38;10.50;;;;;;;29.70;56.58;100876.09;4941469;28;20065;-81
2023/07/13 05:36:07;;;;;;;17.73;9.70;;;;;;;29.43;56.57;100839.66;4940170;28;20058;-83
2023/07/13 05:38:34;;;;;;;16.77;9.80;;;;;;;29.39;56.89;100869.41;4964328;28;20293;-82
2023/07/13 05:41:01;;;;;;;22.70;9.95;;;;;;;29.34;57.40;100896.72;4947189;28;20451;-81
2023/07/13 05:43:32;;;;;;;;;;;;;;;29.97;57.33;100928.09;4948856;28;20050;-81
2023/07/13 05:45:59;;;;;;;20.70;9.82;;;;;;;29.52;56.97;100873.69;4949750;28;19925;-81
2023/07/13 05:48:28;;;;;;;25.30;10.25;;;;;;;29.60;55.61;100942.44;4961985;28;20439;-82
2023/07/13 05:50:55;;;;;;;20.65;9.23;;;;;;;29.54;57.01;100942.63;4952092;28;20470;-81
2023/07/13 05:53:22;;;;;;;17.67;9.10;;;;;;;29.25;57.37;100865.41;4949135;28;20403;-81
2023/07/13 05:55:50;;;;;;;19.98;9.75;;;;;;;29.68;56.27;100954.03;4936770;28;20149;-81
2023/07/13 05:58:21;;;;;;;16.45;8.55;;;;;;;29.43;56.21;100947.16;4944699;28;20077;-82
2023/07/13 06:00:58;;;;;;;22.80;9.30;;;;;;;29.15;56.26;100918.91;4940125;28;20125;-82
2023/07/13 06:03:25;;;;;;;16.67;9.18;;;;;;;29.13;56.92;100923.78;4960625;28;20502;-81
2023/07/13 06:05:51;;;;;;;15.25;8.68;;;;;;;29.64;58.35;100925.50;4951337;28;20143;-81
2023/07/13 06:08:18;;;;;;;17.75;8.52;;;;;;;29.46;56.45;100905.59;4939407;28;20130;-81
2023/07/13 06:10:45;;;;;;;14.98;8.55;;;;;;;29.50;55.11;100945.03;4943750;28;20061;-82
2023/07/13 06:13:12;;;;;;;17.85;9.00;;;;;;;29.44;55.79;100962.47;4949744;28;20133;-81
2023/07/13 06:15:39;;;;;;;17.25;7.32;;;;;;;29.25;56.07;100959.22;4956248;28;20498;-81
2023/07/13 06:18:06;;;;;;;23.25;8.32;;;;;;;28.60;56.31;100886.91;4957504;28;20137;-82
2023/07/13 06:20:34;;;;;;;20.48;8.98;;;;;;;28.87;56.66;100938.94;4964543;28;20061;-80
2023/07/13 06:23:06;;;;;;;19.70;7.57;;;;;;;28.77;56.00;100933.34;4956072;28;20054;-81
2023/07/13 06:25:34;;;;;;;15.82;7.30;;;;;;;28.77;56.40;100944.25;4944643;28;20331;-81
2023/07/13 06:28:00;;;;;;;16.92;7.78;;;;;;;28.88;55.68;100958.91;4947434;28;20146;-80
2023/07/13 06:30:31;;;;;;;19.08;7.55;;;;;;;28.66;55.67;100932.34;4929767;28;20046;-83
2023/07/13 06:32:58;;;;;;;14.40;6.30;;;;;;;28.62;54.94;100947.59;4937649;28;20058;-81
2023/07/13 06:35:25;;;;;;;22.33;7.55;;;;;;;28.61;55.14;100950.56;4948224;28;20065;-81
2023/07/13 06:37:52;;;;;;;13.43;7.18;;;;;;;28.61;55.18;100937.72;4955034;28;20561;-81
2023/07/13 06:40:19;;;;;;;12.48;7.18;;;;;;;28.80;57.02;100948.41;4956037;28;20172;-82
2023/07/13 06:42:45;;;;;;;14.45;7.25;;;;;;;28.84;55.94;100955.84;4955102;28;20409;-82
2023/07/13 06:45:13;;;;;;;15.57;7.05;;;;;;;28.89;55.39;100966.84;4961115;28;20081;-83
2023/07/13 06:47:41;;;;;;;21.13;7.10;;;;;;;28.92;56.46;100955.41;4954777;28;20112;-82
2023/07/13 06:50:08;;;;;;;12.95;6.82;;;;;;;29.45;56.66;100960.56;4962334;28;20054;-79
2023/07/13 06:52:41;;;;;;;10.52;6.78;;;;;;;29.76;55.82;100964.53;4962741;28;20362;-81
2023/07/13 06:55:10;;;;;;;13.88;6.50;;;;;;;29.73;55.84;100963.13;4937032;28;20480;-79
2023/07/13 06:57:37;;;;;;;13.90;6.35;;;;;;;29.51;54.63;100965.84;4933394;28;20057;-79
2023/07/13 07:00:06;;;;;;;13.80;5.85;;;;;;;29.42;54.72;100970.13;4933542;28;20062;-80
2023/07/13 07:02:33;;;;;;;10.90;6.53;;;;;;;29.40;54.73;100975.00;4958016;28;20054;-78
2023/07/13 07:05:01;;;;;;;11.52;6.30;;;;;;;29.12;54.39;100957.66;4965947;28;20133;-81
2023/07/13 07:07:29;;;;;;;20.33;7.30;;;;;;;29.17;53.53;100974.13;4944708;28;20065;-82
2023/07/13 07:09:57;;;;;;;14.18;6.85;;;;;;;29.00;54.13;100972.47;4939368;28;20377;-82
2023/07/13 07:12:26;;;;;;;12.48;5.97;;;;;;;28.53;54.23;100944.41;4941293;28;20097;-81
2023/07/13 07:14:53;;;;;;;27.25;7.05;;;;;;;28.61;54.52;100962.28;4951342;28;20130;-81
2023/07/13 07:17:20;;;;;;;18.83;7.35;;;;;;;28.60;54.23;100937.97;4940726;28;20061;-80
2023/07/13 07:19:50;;;;;;;15.52;6.43;;;;;;;28.55;54.57;100946.91;4932704;28;20089;-83
2023/07/13 07:22:17;;;;;;;23.23;7.65;;;;;;;28.51;54.41;100984.81;4935165;28;20583;-81
2023/07/13 07:24:48;;;;;;;15.02;6.05;;;;;;;28.43;55.25;100998.00;4935194;28;20047;-81
2023/07/13 07:27:17;;;;;;;15.98;7.13;;;;;;;28.31;55.70;100965.31;4931813;28;20179;-81
2023/07/13 07:29:46;;;;;;;16.77;7.03;;;;;;;28.28;54.62;100935.78;4934529;28;20055;-80
2023/07/13 07:32:33;;;;;;;15.07;7.38;;;;;;;28.55;54.73;100958.66;4923094;28;20360;-80
2023/07/13 07:35:03;;;;;;;15.88;7.10;;;;;;;28.69;54.90;100959.16;4937307;28;20051;-81
2023/07/13 07:37:29;;;;;;;21.58;7.57;;;;;;;28.82;55.13;100968.09;4937677;28;20129;-80
2023/07/13 07:39:59;;;;;;;15.98;8.13;;;;;;;28.65;55.04;100941.63;4942285;28;20643;-82
2023/07/13 07:42:29;;;;;;;16.52;7.57;;;;;;;29.19;56.29;100973.88;4959348;28;20053;-80
2023/07/13 07:44:56;;;;;;;10.68;5.97;;;;;;;29.26;56.00;100962.78;4952383;28;20058;-80
2023/07/13 07:47:23;;;;;;;25.73;10.82;;;;;;;29.30;54.73;100956.56;4952649;28;20070;-78
2023/07/13 07:49:52;;;;;;;29.48;10.40;;;;;;;29.35;53.71;100983.13;4945907;28;20504;-82
2023/07/13 07:52:29;;;;;;;19.67;10.52;;;;;;;29.09;54.29;100954.59;4956140;28;20422;-80
2023/07/13 07:55:01;;;;;;;19.65;9.63;;;;;;;29.66;55.06;100980.78;4922374;28;20574;-81
2023/07/13 07:57:34;;;;;;;18.23;7.97;;;;;;;29.77;55.17;100952.50;4929762;28;20407;-81
2023/07/13 08:00:21;;;;;;;18.38;7.65;;;;;;;29.61;54.26;100959.66;4931265;28;20521;-80
2023/07/13 08:02:50;;;;;;;14.55;7.82;;;;;;;29.67;53.61;100968.81;4961248;28;20058;-80
2023/07/13 08:05:23;;;;;;;22.08;8.02;;;;;;;29.76;53.65;100984.53;4949591;28;20050;-80
2023/07/13 08:08:08;;;;;;;11.48;6.82;;;;;;;30.07;54.98;100962.13;4916563;29;20059;-80
2023/07/13 08:10:37;;;;;;;15.43;7.18;;;;;;;30.21;54.42;100942.31;4923112;29;20051;-80
2023/07/13 08:13:04;;;;;;;12.18;7.22;;;;;;;30.12;53.61;100915.66;4948754;28;20153;-79
2023/07/13 08:15:33;;;;;;;13.98;6.57;;;;;;;30.47;53.79;100928.06;4958106;28;20410;-80
2023/07/13 08:18:06;;;;;;;15.50;7.07;;;;;;;30.50;53.68;100928.34;4963906;28;20129;-82
2023/07/13 08:20:33;;;;;;;13.45;6.88;;;;;;;30.16;53.01;100916.78;4962158;28;20461;-81
2023/07/13 08:23:03;;;;;;;13.73;7.75;;;;;;;29.74;52.63;100822.53;4959383;28;20437;-80
2023/07/13 08:25:30;;;;;;;13.77;7.35;;;;;;;30.28;53.51;100920.22;4953404;28;20568;-81
2023/07/13 08:27:57;;;;;;;11.90;7.22;;;;;;;30.47;53.16;100897.94;4930966;28;20046;-79
2023/07/13 08:30:24;;;;;;;20.02;9.43;;;;;;;30.03;52.12;100861.38;4934901;28;20062;-80
2023/07/13 08:32:53;;;;;;;13.55;7.88;;;;;;;30.64;52.93;100931.47;4943355;28;20058;-79
2023/07/13 08:35:20;;;;;;;21.48;7.78;;;;;;;30.54;52.20;100939.63;4947426;28;20098;-80
2023/07/13 08:37:47;;;;;;;17.15;7.80;;;;;;;30.21;53.21;100922.31;4919542;28;20583;-80
2023/07/13 08:40:14;;;;;;;11.65;7.68;;;;;;;30.30;53.55;100933.66;4923572;28;20055;-80
2023/07/13 08:42:46;;;;;;;15.45;7.22;;;;;;;30.55;53.12;100941.25;4937836;28;20058;-81
2023/07/13 08:45:25;;;;;;;14.23;7.43;;;;;;;30.20;52.26;100868.66;4929829;28;20074;-81
2023/07/13 08:48:11;;;;;;;18.40;7.75;;;;;;;30.56;53.52;100982.09;4939322;28;20511;-81
2023/07/13 08:50:47;;;;;;;22.42;9.10;;;;;;;30.01;53.24;100994.94;4933789;28;20158;-82
2023/07/13 08:53:37;;;;;;;17.65;8.38;;;;;;;29.86;54.44;101016.66;4956864;28;20128;-82
2023/07/13 08:56:09;;;;;;;12.30;7.72;;;;;;;29.87;54.73;100963.56;4941138;28;20051;-79
2023/07/13 08:58:38;;;;;;;11.98;7.78;;;;;;;30.28;55.07;100936.66;4935551;28;20058;-81
2023/07/13 09:01:32;;;;;;;10.98;6.53;;;;;;;30.44;54.71;100946.66;4962892;28;20052;-80
2023/07/13 09:04:08;;;;;;;20.30;9.02;;;;;;;30.08;54.52;100975.59;4917353;29;20043;-81
2023/07/13 09:06:49;;;;;;;11.65;8.20;;;;;;;29.91;55.49;100989.34;4931281;28;20366;-81
2023/07/13 09:09:33;;;;;;;12.35;7.75;;;;;;;30.21;55.67;101007.19;4941598;28;20054;-81
2023/07/13 09:12:09;;;;;;;19.30;8.45;;;;;;;30.48;54.28;100979.00;4930788;28;20258;-81
2023/07/13 09:18:26;;;;;;;23.65;10.10;;;;;;;29.53;55.72;100914.44;4930225;29;20054;-80
2023/07/13 09:21:18;;;;;;;20.25;9.02;;;;;;;29.86;56.16;100986.56;4954386;28;20118;-81
2023/07/13 09:23:45;;;;;;;21.33;9.98;;;;;;;29.73;56.68;100978.72;4951645;28;20396;-81
2023/07/13 09:26:24;;;;;;;17.60;9.18;;;;;;;29.67;57.20;101020.78;4925796;28;20054;-79
2023/07/13 09:28:59;;;;;;;19.02;10.70;;;;;;;29.61;57.46;101050.78;4941952;28;20313;-80
2023/07/13 09:31:30;;;;;;;18.92;8.90;;;;;;;29.34;57.88;101020.56;4924107;29;20066;-80
2023/07/13 09:33:58;;;;;;;24.80;10.90;;;;;;;29.36;58.37;101034.00;4929505;28;20051;-79
2023/07/13 09:36:28;;;;;;;29.67;12.73;;;;;;;29.00;61.36;100984.22;4939989;28;20130;-80
2023/07/13 09:39:04;;;;;;;27.55;12.80;;;;;;;29.06;62.58;101037.94;4936791;28;20054;-81
2023/07/13 09:41:55;;;;;;;32.72;12.20;;;;;;;28.73;64.81;101020.41;4950661;28;20191;-79
2023/07/13 09:44:33;;;;;;;36.60;13.60;;;;;;;28.82;65.60;101061.00;4922812;28;20054;-81
2023/07/13 09:47:00;;;;;;;33.75;14.25;;;;;;;28.73;65.78;101042.25;4936541;28;20141;-82
2023/07/13 09:49:29;;;;;;;18.63;10.90;;;;;;;28.55;65.74;100976.97;4937058;28;20054;-81
2023/07/13 09:52:03;;;;;;;32.42;10.98;;;;;;;28.77;65.13;100928.69;4925567;28;20050;-82
2023/07/13 09:54:33;;;;;;;37.08;12.77;;;;;;;28.82;65.03;100894.34;4934781;28;20050;-82
2023/07/13 09:57:01;;;;;;;33.58;13.70;;;;;;;28.80;65.67;100910.16;4945740;28;20518;-82
2023/07/13 09:59:34;;;;;;;20.50;10.40;;;;;;;28.96;63.34;100854.66;4940774;28;20054;-84
2023/07/13 10:02:02;;;;;;;12.98;9.18;;;;;;;29.33;61.63;100789.25;4933714;28;20067;-84
2023/07/13 10:04:34;;;;;;;22.42;12.68;;;;;;;27.86;63.53;100584.19;4943981;28;20553;-81
2023/07/13 10:07:11;;;;;;;30.40;13.65;;;;;;;29.01;65.25;100835.59;4942812;28;20584;-82
2023/07/13 10:09:56;;;;;;;24.92;15.07;;;;;;;28.63;67.55;100983.91;4914965;28;20051;-81
2023/07/13 10:12:30;;;;;;;24.52;14.13;;;;;;;28.25;69.06;100997.13;4904883;28;20049;-82
2023/07/13 10:15:00;;;;;;;21.63;13.48;;;;;;;27.99;67.08;101023.13;4913921;28;20429;-79
2023/07/13 10:17:50;;;;;;;33.57;13.17;;;;;;;28.03;67.49;101091.66;4910368;28;20263;-79
2023/07/13 10:20:20;;;;;;;22.90;13.32;;;;;;;27.86;68.17;101089.66;4911684;29;20063;-78
2023/07/13 10:22:52;;;;;;;20.92;12.45;;;;;;;27.77;68.28;101087.53;4897008;29;20086;-79
2023/07/13 10:25:25;;;;;;;18.33;10.07;;;;;;;27.31;67.27;101051.03;4897456;28;20082;-80
2023/07/13 10:28:05;;;;;;;20.50;10.98;;;;;;;27.46;67.62;101104.03;4917962;28;20058;-81
2023/07/13 10:30:41;;;;;;;12.25;9.43;;;;;;;27.41;67.78;101098.44;4907843;28;20363;-79
2023/07/13 10:33:13;;;;;;;16.23;10.35;;;;;;;27.52;67.56;101107.69;4912689;28;20459;-80
2023/07/13 10:35:43;;;;;;;19.55;11.30;;;;;;;27.64;66.70;101096.78;4887234;28;20296;-81
2023/07/13 10:38:23;;;;;;;24.98;11.82;;;;;;;27.59;67.19;101070.22;4894362;28;20358;-81
2023/07/13 10:41:20;;;;;;;23.10;11.88;;;;;;;27.82;67.86;101082.19;4890645;28;20355;-80
2023/07/13 10:43:57;;;;;;;23.05;12.30;;;;;;;27.84;66.28;101037.28;4908336;28;20109;-81
2023/07/13 10:46:30;;;;;;;25.83;11.77;;;;;;;28.37;66.34;101091.81;4897037;28;20497;-79
2023/07/13 10:49:11;;;;;;;19.65;11.68;;;;;;;28.59;63.14;101084.63;4880772;28;20276;-80
2023/07/13 10:51:41;;;;;;;21.52;10.90;;;;;;;28.58;64.63;101061.13;4920635;28;20357;-81
2023/07/13 10:54:23;;;;;;;26.15;11.48;;;;;;;28.94;65.12;101069.94;4885644;28;20093;-80
2023/07/13 10:57:29;;;;;;;18.52;10.93;;;;;;;29.10;61.60;101047.28;4898697;28;20055;-79
2023/07/13 11:00:08;;;;;;;33.20;11.80;;;;;;;29.14;61.59;101053.91;4908635;28;20050;-80
2023/07/13 11:02:42;;;;;;;18.05;10.98;;;;;;;29.10;61.64;101055.47;4922967;28;20137;-78
2023/07/13 11:05:33;;;;;;;23.88;12.18;;;;;;;29.04;61.71;101048.25;4930931;28;20055;-80
2023/07/13 11:08:16;;;;;;;34.05;12.40;;;;;;;28.66;61.99;100984.22;4897803;28;20059;-79
2023/07/13 11:10:54;;;;;;;22.52;11.70;;;;;;;29.03;59.68;101013.81;4895642;29;20051;-81
2023/07/13 11:13:49;;;;;;;20.63;10.00;;;;;;;29.05;60.45;101028.03;4891768;28;20138;-80
2023/07/13 11:16:22;;;;;;;23.90;10.15;;;;;;;29.11;60.94;101032.53;4907590;28;20051;-80
2023/07/13 11:19:14;;;;;;;21.15;10.70;;;;;;;29.17;61.64;101028.78;4898373;29;20130;-81
2023/07/13 11:22:07;;;;;;;30.33;12.38;;;;;;;28.97;59.89;100979.28;4865768;28;20063;-81
2023/07/13 11:24:58;;;;;;;22.08;10.15;;;;;;;29.01;60.89;100991.38;4880571;28;20701;-80
2023/07/13 11:27:38;;;;;;;23.35;12.07;;;;;;;29.49;60.25;101035.53;4916060;28;20078;-81
2023/07/13 11:30:31;;;;;;;27.97;13.23;;;;;;;29.56;59.35;101045.22;4908439;28;20065;-81
2023/07/13 11:33:06;;;;;;;21.60;11.48;;;;;;;29.73;58.62;101033.44;4927445;28;20310;-79
2023/07/13 11:35:45;;;;;;;23.55;13.27;;;;;;;29.61;58.12;100993.34;4901931;28;20837;-79